Airfield :
LOGIN :

Register | Disclaimer

   EN    FR    IT 

 










Legend :    VFR   Marginal VFR   IFR   Intensive IFR   Very Intensive IFR
Visi :
Ceiling :
>= 8 km
>= 3000ft
5 to 8 km
1000 to 3000 ft
1500m to 5 km
500 to 1000 ft
800 to 1500m
200 to 500 ft
< 800m
< 200 ft
Symbols :   Thunderstorms  Fog  Heavy snow  Heavy precipitations  Wind > 20 kt
SIGMETs :     Misc.  Thunderstorms  Icing  Turbulence  Mountain Waves  Volcanic Ashes







- Airport Elevation : 1300 ft
- IATA code : LIG
- Download approach charts


LFBL - Limoges

CURRENT METAR :
  • 262100Z AUTO 00000KT 9999 VV/// 14/14 Q1023 BECMG NSC

EXPIRED METARs :
  • 262030Z AUTO 00000KT 9999 FEW023 BKN043 14/14 Q1023 NOSIG
  • 262000Z AUTO 00000KT 9999 OVC044 15/14 Q1023 NOSIG
  • 261930Z AUTO VRB02KT 9999 OVC044 15/14 Q1023 NOSIG
  • 261900Z AUTO 32003KT 9999 OVC041 15/14 Q1023 NOSIG
  • 261830Z AUTO 34004KT 9999 OVC035 15/14 Q1023 NOSIG

TAF AMD TAF LFBL
Valid from the 26 at 21:00 until the 27 at 18:00 UTC


262126Z 2621/2718 10005KT 9999 SCT025 BKN040
PROB40
TEMPO 2621/2708 3000 BR
PROB30
TEMPO 2621/2707 0800 BCFG VV///
BECMG 2710/2712 18010KT
BECMG 2717/2718 VRB02KT
ATIS : +33 5 55 48 40 37
No reported NOTAMs for that airfield.



MET'MAP, your aeronautical weather chart ! - Copyright ORBIFLY December 2007 - Disclaimer

ORBIFLY MET'MAP TEAM :

Programming & Development : Alexandra Zaïnal
Concept & Development : Baudouin d'Aumeries
Co-Development & Prog : Marc-Olivier Méhu
Technical & hardware support : Manuel Goepfert

Contact : metmap@orbifly.com




SOURCES & CREDITS :

   NOAA